sensor_id;sensor_type;location;lat;lon;timestamp;P1;durP1;ratioP1;P2;durP2;ratioP2
37633;SDS011;32048;49.902;22.508;2023-04-19T00:00:13;36.28;;;23.88;;
37633;SDS011;32048;49.902;22.508;2023-04-19T00:03:00;33.55;;;20.08;;
37633;SDS011;32048;49.902;22.508;2023-04-19T00:05:28;39.58;;;22.05;;
37633;SDS011;32048;49.902;22.508;2023-04-19T00:07:56;43.00;;;24.23;;
37633;SDS011;32048;49.902;22.508;2023-04-19T00:10:23;33.03;;;22.33;;
37633;SDS011;32048;49.902;22.508;2023-04-19T00:12:50;37.28;;;23.42;;
37633;SDS011;32048;49.902;22.508;2023-04-19T00:15:18;38.97;;;24.80;;
37633;SDS011;32048;49.902;22.508;2023-04-19T00:17:45;36.15;;;22.10;;
37633;SDS011;32048;49.902;22.508;2023-04-19T00:20:12;34.65;;;21.77;;
37633;SDS011;32048;49.902;22.508;2023-04-19T00:22:39;35.90;;;22.58;;
37633;SDS011;32048;49.902;22.508;2023-04-19T00:25:06;36.30;;;22.25;;
37633;SDS011;32048;49.902;22.508;2023-04-19T00:27:34;34.95;;;21.95;;
37633;SDS011;32048;49.902;22.508;2023-04-19T00:30:01;36.30;;;21.40;;
37633;SDS011;32048;49.902;22.508;2023-04-19T00:32:28;31.13;;;21.40;;
37633;SDS011;32048;49.902;22.508;2023-04-19T00:34:55;29.10;;;20.35;;
37633;SDS011;32048;49.902;22.508;2023-04-19T00:37:22;35.85;;;21.30;;
37633;SDS011;32048;49.902;22.508;2023-04-19T00:39:49;30.42;;;19.77;;
37633;SDS011;32048;49.902;22.508;2023-04-19T00:42:16;33.60;;;21.20;;
37633;SDS011;32048;49.902;22.508;2023-04-19T00:44:43;32.88;;;21.20;;
37633;SDS011;32048;49.902;22.508;2023-04-19T00:47:10;33.90;;;20.67;;
37633;SDS011;32048;49.902;22.508;2023-04-19T00:49:39;28.40;;;19.63;;
37633;SDS011;32048;49.902;22.508;2023-04-19T00:52:06;31.88;;;20.45;;
37633;SDS011;32048;49.902;22.508;2023-04-19T00:54:33;37.80;;;21.38;;
37633;SDS011;32048;49.902;22.508;2023-04-19T00:57:01;32.75;;;19.58;;
37633;SDS011;32048;49.902;22.508;2023-04-19T00:59:28;36.05;;;20.92;;
37633;SDS011;32048;49.902;22.508;2023-04-19T01:01:56;33.50;;;19.83;;
37633;SDS011;32048;49.902;22.508;2023-04-19T01:04:24;34.55;;;21.15;;
37633;SDS011;32048;49.902;22.508;2023-04-19T01:06:51;32.42;;;20.63;;
37633;SDS011;32048;49.902;22.508;2023-04-19T01:09:19;32.60;;;21.00;;
37633;SDS011;32048;49.902;22.508;2023-04-19T01:11:46;33.33;;;21.17;;
37633;SDS011;32048;49.902;22.508;2023-04-19T01:14:13;33.70;;;21.88;;
37633;SDS011;32048;49.902;22.508;2023-04-19T01:16:40;31.63;;;21.15;;
37633;SDS011;32048;49.902;22.508;2023-04-19T01:19:07;36.33;;;21.55;;
37633;SDS011;32048;49.902;22.508;2023-04-19T01:21:37;32.78;;;20.80;;
37633;SDS011;32048;49.902;22.508;2023-04-19T01:24:05;32.13;;;20.23;;
37633;SDS011;32048;49.902;22.508;2023-04-19T01:26:33;31.27;;;21.10;;
37633;SDS011;32048;49.902;22.508;2023-04-19T01:28:59;28.75;;;19.85;;
37633;SDS011;32048;49.902;22.508;2023-04-19T01:31:27;28.40;;;19.05;;
37633;SDS011;32048;49.902;22.508;2023-04-19T01:33:54;28.05;;;19.67;;
37633;SDS011;32048;49.902;22.508;2023-04-19T01:36:21;30.48;;;18.85;;
37633;SDS011;32048;49.902;22.508;2023-04-19T01:38:48;29.80;;;19.40;;
37633;SDS011;32048;49.902;22.508;2023-04-19T01:41:15;35.08;;;19.90;;
37633;SDS011;32048;49.902;22.508;2023-04-19T01:43:42;33.05;;;19.73;;
37633;SDS011;32048;49.902;22.508;2023-04-19T01:46:09;29.52;;;19.58;;
37633;SDS011;32048;49.902;22.508;2023-04-19T01:48:36;32.63;;;20.23;;
37633;SDS011;32048;49.902;22.508;2023-04-19T01:51:03;32.00;;;20.90;;
37633;SDS011;32048;49.902;22.508;2023-04-19T01:53:30;27.33;;;19.73;;
37633;SDS011;32048;49.902;22.508;2023-04-19T01:55:57;30.55;;;19.80;;
37633;SDS011;32048;49.902;22.508;2023-04-19T01:58:24;30.13;;;19.70;;
37633;SDS011;32048;49.902;22.508;2023-04-19T02:00:51;34.15;;;19.55;;
37633;SDS011;32048;49.902;22.508;2023-04-19T02:03:18;32.90;;;19.75;;
37633;SDS011;32048;49.902;22.508;2023-04-19T02:05:46;33.65;;;20.80;;
37633;SDS011;32048;49.902;22.508;2023-04-19T02:08:13;30.00;;;19.60;;
37633;SDS011;32048;49.902;22.508;2023-04-19T02:10:40;36.53;;;22.05;;
37633;SDS011;32048;49.902;22.508;2023-04-19T02:13:07;32.05;;;20.88;;
37633;SDS011;32048;49.902;22.508;2023-04-19T02:15:35;33.03;;;21.30;;
37633;SDS011;32048;49.902;22.508;2023-04-19T02:18:02;31.70;;;21.73;;
37633;SDS011;32048;49.902;22.508;2023-04-19T02:20:32;28.02;;;19.92;;
37633;SDS011;32048;49.902;22.508;2023-04-19T02:22:59;34.03;;;20.40;;
37633;SDS011;32048;49.902;22.508;2023-04-19T02:25:26;30.23;;;20.98;;
37633;SDS011;32048;49.902;22.508;2023-04-19T02:27:53;32.35;;;20.95;;
37633;SDS011;32048;49.902;22.508;2023-04-19T02:30:21;36.35;;;22.27;;
37633;SDS011;32048;49.902;22.508;2023-04-19T02:32:48;33.60;;;21.73;;
37633;SDS011;32048;49.902;22.508;2023-04-19T02:35:15;33.15;;;20.88;;
37633;SDS011;32048;49.902;22.508;2023-04-19T02:37:43;36.47;;;22.17;;
37633;SDS011;32048;49.902;22.508;2023-04-19T02:40:10;33.78;;;20.92;;
37633;SDS011;32048;49.902;22.508;2023-04-19T02:42:37;36.03;;;23.17;;
37633;SDS011;32048;49.902;22.508;2023-04-19T02:45:04;33.42;;;22.73;;
37633;SDS011;32048;49.902;22.508;2023-04-19T02:47:32;38.58;;;20.33;;
37633;SDS011;32048;49.902;22.508;2023-04-19T02:49:59;33.67;;;21.42;;
37633;SDS011;32048;49.902;22.508;2023-04-19T02:52:27;31.15;;;20.40;;
37633;SDS011;32048;49.902;22.508;2023-04-19T02:54:54;33.13;;;20.77;;
37633;SDS011;32048;49.902;22.508;2023-04-19T02:57:21;32.30;;;21.50;;
37633;SDS011;32048;49.902;22.508;2023-04-19T02:59:48;31.88;;;20.67;;
37633;SDS011;32048;49.902;22.508;2023-04-19T03:02:15;30.55;;;20.85;;
37633;SDS011;32048;49.902;22.508;2023-04-19T03:04:43;34.72;;;20.67;;
37633;SDS011;32048;49.902;22.508;2023-04-19T03:07:10;33.05;;;20.45;;
37633;SDS011;32048;49.902;22.508;2023-04-19T03:09:37;32.53;;;20.48;;
37633;SDS011;32048;49.902;22.508;2023-04-19T03:12:05;32.45;;;20.80;;
37633;SDS011;32048;49.902;22.508;2023-04-19T03:17:00;32.75;;;19.70;;
37633;SDS011;32048;49.902;22.508;2023-04-19T03:19:27;31.33;;;19.67;;
37633;SDS011;32048;49.902;22.508;2023-04-19T03:21:54;29.55;;;20.13;;
37633;SDS011;32048;49.902;22.508;2023-04-19T03:24:28;29.25;;;19.40;;
37633;SDS011;32048;49.902;22.508;2023-04-19T03:26:56;29.38;;;19.75;;
37633;SDS011;32048;49.902;22.508;2023-04-19T03:29:23;29.08;;;19.50;;
37633;SDS011;32048;49.902;22.508;2023-04-19T03:31:50;27.83;;;18.50;;
37633;SDS011;32048;49.902;22.508;2023-04-19T03:34:18;29.08;;;19.48;;
37633;SDS011;32048;49.902;22.508;2023-04-19T03:36:45;27.48;;;19.10;;
37633;SDS011;32048;49.902;22.508;2023-04-19T03:39:12;27.23;;;18.52;;
37633;SDS011;32048;49.902;22.508;2023-04-19T03:41:39;28.83;;;18.95;;
37633;SDS011;32048;49.902;22.508;2023-04-19T03:44:06;26.88;;;19.00;;
37633;SDS011;32048;49.902;22.508;2023-04-19T03:46:33;28.70;;;18.88;;
37633;SDS011;32048;49.902;22.508;2023-04-19T03:49:00;31.88;;;18.65;;
37633;SDS011;32048;49.902;22.508;2023-04-19T03:51:27;28.05;;;18.20;;
37633;SDS011;32048;49.902;22.508;2023-04-19T03:53:54;33.00;;;19.50;;
37633;SDS011;32048;49.902;22.508;2023-04-19T03:56:21;32.15;;;19.50;;
37633;SDS011;32048;49.902;22.508;2023-04-19T03:58:50;25.20;;;18.73;;
37633;SDS011;32048;49.902;22.508;2023-04-19T04:01:20;27.98;;;18.08;;
37633;SDS011;32048;49.902;22.508;2023-04-19T04:03:48;27.23;;;17.75;;
37633;SDS011;32048;49.902;22.508;2023-04-19T04:06:15;26.77;;;18.80;;
37633;SDS011;32048;49.902;22.508;2023-04-19T04:08:43;31.23;;;18.77;;
37633;SDS011;32048;49.902;22.508;2023-04-19T04:11:10;26.88;;;18.42;;
37633;SDS011;32048;49.902;22.508;2023-04-19T04:13:37;28.13;;;18.73;;
37633;SDS011;32048;49.902;22.508;2023-04-19T04:16:04;24.67;;;18.60;;
37633;SDS011;32048;49.902;22.508;2023-04-19T04:18:31;30.90;;;18.33;;
37633;SDS011;32048;49.902;22.508;2023-04-19T04:20:58;28.02;;;18.25;;
37633;SDS011;32048;49.902;22.508;2023-04-19T04:23:25;28.02;;;17.98;;
37633;SDS011;32048;49.902;22.508;2023-04-19T04:25:57;26.33;;;18.77;;
37633;SDS011;32048;49.902;22.508;2023-04-19T04:28:27;24.63;;;17.55;;
37633;SDS011;32048;49.902;22.508;2023-04-19T04:30:54;30.77;;;19.25;;
37633;SDS011;32048;49.902;22.508;2023-04-19T04:33:26;24.42;;;17.50;;
37633;SDS011;32048;49.902;22.508;2023-04-19T04:35:54;23.00;;;16.10;;
37633;SDS011;32048;49.902;22.508;2023-04-19T04:38:22;28.58;;;17.55;;
37633;SDS011;32048;49.902;22.508;2023-04-19T04:40:53;22.67;;;16.40;;
37633;SDS011;32048;49.902;22.508;2023-04-19T04:43:22;25.48;;;16.85;;
37633;SDS011;32048;49.902;22.508;2023-04-19T04:45:51;24.50;;;16.77;;
37633;SDS011;32048;49.902;22.508;2023-04-19T04:48:21;28.48;;;16.95;;
37633;SDS011;32048;49.902;22.508;2023-04-19T04:50:48;24.75;;;16.83;;
37633;SDS011;32048;49.902;22.508;2023-04-19T04:53:15;22.08;;;15.98;;
37633;SDS011;32048;49.902;22.508;2023-04-19T04:55:42;25.92;;;15.77;;
37633;SDS011;32048;49.902;22.508;2023-04-19T04:58:09;22.98;;;15.50;;
37633;SDS011;32048;49.902;22.508;2023-04-19T05:00:36;22.25;;;15.05;;
37633;SDS011;32048;49.902;22.508;2023-04-19T05:03:03;20.73;;;15.90;;
37633;SDS011;32048;49.902;22.508;2023-04-19T05:05:31;22.88;;;14.82;;
37633;SDS011;32048;49.902;22.508;2023-04-19T05:07:58;20.08;;;14.38;;
37633;SDS011;32048;49.902;22.508;2023-04-19T05:10:25;23.45;;;14.35;;
37633;SDS011;32048;49.902;22.508;2023-04-19T05:12:52;25.77;;;14.80;;
37633;SDS011;32048;49.902;22.508;2023-04-19T05:15:19;21.88;;;15.77;;
37633;SDS011;32048;49.902;22.508;2023-04-19T05:17:46;22.48;;;14.48;;
37633;SDS011;32048;49.902;22.508;2023-04-19T05:20:13;18.98;;;14.43;;
37633;SDS011;32048;49.902;22.508;2023-04-19T05:22:40;23.13;;;14.23;;
37633;SDS011;32048;49.902;22.508;2023-04-19T05:25:08;19.83;;;14.27;;
37633;SDS011;32048;49.902;22.508;2023-04-19T05:27:36;20.52;;;14.23;;
37633;SDS011;32048;49.902;22.508;2023-04-19T05:30:04;19.00;;;14.18;;
37633;SDS011;32048;49.902;22.508;2023-04-19T05:32:32;18.13;;;13.35;;
37633;SDS011;32048;49.902;22.508;2023-04-19T05:34:59;22.10;;;13.32;;
37633;SDS011;32048;49.902;22.508;2023-04-19T05:37:26;19.35;;;13.10;;
37633;SDS011;32048;49.902;22.508;2023-04-19T05:39:53;22.63;;;12.63;;
37633;SDS011;32048;49.902;22.508;2023-04-19T05:42:20;22.33;;;13.77;;
37633;SDS011;32048;49.902;22.508;2023-04-19T05:44:47;18.70;;;12.25;;
37633;SDS011;32048;49.902;22.508;2023-04-19T05:47:15;18.77;;;12.35;;
37633;SDS011;32048;49.902;22.508;2023-04-19T05:49:43;19.20;;;12.27;;
37633;SDS011;32048;49.902;22.508;2023-04-19T05:52:10;20.25;;;12.90;;
37633;SDS011;32048;49.902;22.508;2023-04-19T05:54:37;16.77;;;12.10;;
37633;SDS011;32048;49.902;22.508;2023-04-19T05:57:04;19.45;;;13.13;;
37633;SDS011;32048;49.902;22.508;2023-04-19T05:59:31;17.67;;;12.27;;
37633;SDS011;32048;49.902;22.508;2023-04-19T06:01:58;20.38;;;12.52;;
37633;SDS011;32048;49.902;22.508;2023-04-19T06:04:27;16.85;;;12.75;;
37633;SDS011;32048;49.902;22.508;2023-04-19T06:06:54;16.08;;;12.13;;
37633;SDS011;32048;49.902;22.508;2023-04-19T06:09:21;17.48;;;12.38;;
37633;SDS011;32048;49.902;22.508;2023-04-19T06:11:48;21.48;;;13.68;;
37633;SDS011;32048;49.902;22.508;2023-04-19T06:14:17;21.70;;;12.95;;
37633;SDS011;32048;49.902;22.508;2023-04-19T06:16:45;17.10;;;11.52;;
37633;SDS011;32048;49.902;22.508;2023-04-19T06:19:12;15.55;;;11.90;;
37633;SDS011;32048;49.902;22.508;2023-04-19T06:21:39;16.33;;;11.50;;
37633;SDS011;32048;49.902;22.508;2023-04-19T06:24:06;16.42;;;12.10;;
37633;SDS011;32048;49.902;22.508;2023-04-19T06:26:34;16.60;;;10.73;;
37633;SDS011;32048;49.902;22.508;2023-04-19T06:29:00;17.10;;;12.25;;
37633;SDS011;32048;49.902;22.508;2023-04-19T06:31:28;18.75;;;11.93;;
37633;SDS011;32048;49.902;22.508;2023-04-19T06:33:55;19.15;;;12.75;;
37633;SDS011;32048;49.902;22.508;2023-04-19T06:36:22;14.93;;;11.60;;
37633;SDS011;32048;49.902;22.508;2023-04-19T06:38:49;19.25;;;11.80;;
37633;SDS011;32048;49.902;22.508;2023-04-19T06:41:16;17.75;;;11.77;;
37633;SDS011;32048;49.902;22.508;2023-04-19T06:43:43;16.15;;;10.93;;
37633;SDS011;32048;49.902;22.508;2023-04-19T06:46:10;16.58;;;11.82;;
37633;SDS011;32048;49.902;22.508;2023-04-19T06:48:40;14.77;;;11.02;;
37633;SDS011;32048;49.902;22.508;2023-04-19T06:51:07;18.00;;;10.90;;
37633;SDS011;32048;49.902;22.508;2023-04-19T06:53:34;17.60;;;11.00;;
37633;SDS011;32048;49.902;22.508;2023-04-19T06:56:03;23.23;;;11.35;;
37633;SDS011;32048;49.902;22.508;2023-04-19T06:58:30;16.45;;;10.73;;
37633;SDS011;32048;49.902;22.508;2023-04-19T07:01:00;17.15;;;11.10;;
37633;SDS011;32048;49.902;22.508;2023-04-19T07:03:29;20.05;;;11.32;;
37633;SDS011;32048;49.902;22.508;2023-04-19T07:05:57;18.15;;;10.93;;
37633;SDS011;32048;49.902;22.508;2023-04-19T07:08:25;18.75;;;10.40;;
37633;SDS011;32048;49.902;22.508;2023-04-19T07:11:08;17.70;;;10.32;;
37633;SDS011;32048;49.902;22.508;2023-04-19T07:13:35;18.65;;;10.50;;
37633;SDS011;32048;49.902;22.508;2023-04-19T07:16:03;16.80;;;10.60;;
37633;SDS011;32048;49.902;22.508;2023-04-19T07:18:31;33.67;;;12.02;;
37633;SDS011;32048;49.902;22.508;2023-04-19T07:20:58;21.27;;;10.65;;
37633;SDS011;32048;49.902;22.508;2023-04-19T07:23:25;15.48;;;10.43;;
37633;SDS011;32048;49.902;22.508;2023-04-19T07:25:52;16.63;;;10.52;;
37633;SDS011;32048;49.902;22.508;2023-04-19T07:28:19;15.63;;;10.85;;
37633;SDS011;32048;49.902;22.508;2023-04-19T07:30:46;16.27;;;11.00;;
37633;SDS011;32048;49.902;22.508;2023-04-19T07:33:13;17.08;;;11.55;;
37633;SDS011;32048;49.902;22.508;2023-04-19T07:35:40;16.58;;;10.52;;
37633;SDS011;32048;49.902;22.508;2023-04-19T07:38:07;18.42;;;10.70;;
37633;SDS011;32048;49.902;22.508;2023-04-19T07:40:35;13.85;;;10.05;;
37633;SDS011;32048;49.902;22.508;2023-04-19T07:43:02;15.23;;;10.30;;
37633;SDS011;32048;49.902;22.508;2023-04-19T07:45:29;17.02;;;11.65;;
37633;SDS011;32048;49.902;22.508;2023-04-19T07:47:56;20.42;;;13.45;;
37633;SDS011;32048;49.902;22.508;2023-04-19T07:50:24;26.70;;;14.18;;
37633;SDS011;32048;49.902;22.508;2023-04-19T07:52:52;18.60;;;11.43;;
37633;SDS011;32048;49.902;22.508;2023-04-19T07:55:19;19.73;;;11.02;;
37633;SDS011;32048;49.902;22.508;2023-04-19T07:57:46;17.67;;;11.00;;
37633;SDS011;32048;49.902;22.508;2023-04-19T08:00:15;29.42;;;15.77;;
37633;SDS011;32048;49.902;22.508;2023-04-19T08:02:44;26.23;;;15.25;;
37633;SDS011;32048;49.902;22.508;2023-04-19T08:05:12;19.13;;;11.85;;
37633;SDS011;32048;49.902;22.508;2023-04-19T08:07:43;15.68;;;10.73;;
37633;SDS011;32048;49.902;22.508;2023-04-19T08:10:11;13.77;;;10.43;;
37633;SDS011;32048;49.902;22.508;2023-04-19T08:12:39;17.52;;;10.90;;
37633;SDS011;32048;49.902;22.508;2023-04-19T08:15:27;15.77;;;10.98;;
37633;SDS011;32048;49.902;22.508;2023-04-19T08:18:14;16.48;;;10.23;;
37633;SDS011;32048;49.902;22.508;2023-04-19T08:20:41;17.20;;;10.55;;
37633;SDS011;32048;49.902;22.508;2023-04-19T08:23:08;17.77;;;10.40;;
37633;SDS011;32048;49.902;22.508;2023-04-19T08:25:49;16.67;;;10.30;;
37633;SDS011;32048;49.902;22.508;2023-04-19T08:28:17;14.98;;;11.18;;
37633;SDS011;32048;49.902;22.508;2023-04-19T08:30:45;23.92;;;13.35;;
37633;SDS011;32048;49.902;22.508;2023-04-19T08:33:12;17.60;;;11.23;;
37633;SDS011;32048;49.902;22.508;2023-04-19T08:35:39;15.55;;;10.63;;
37633;SDS011;32048;49.902;22.508;2023-04-19T08:38:07;15.57;;;9.75;;
37633;SDS011;32048;49.902;22.508;2023-04-19T08:40:34;17.30;;;10.30;;
37633;SDS011;32048;49.902;22.508;2023-04-19T08:43:12;16.15;;;10.40;;
37633;SDS011;32048;49.902;22.508;2023-04-19T08:45:40;18.97;;;11.23;;
37633;SDS011;32048;49.902;22.508;2023-04-19T08:48:08;17.58;;;11.68;;
37633;SDS011;32048;49.902;22.508;2023-04-19T08:50:40;15.32;;;11.30;;
37633;SDS011;32048;49.902;22.508;2023-04-19T08:53:29;14.48;;;10.48;;
37633;SDS011;32048;49.902;22.508;2023-04-19T08:55:57;16.17;;;11.60;;
37633;SDS011;32048;49.902;22.508;2023-04-19T08:58:29;27.00;;;13.75;;
37633;SDS011;32048;49.902;22.508;2023-04-19T09:01:18;17.33;;;12.27;;
37633;SDS011;32048;49.902;22.508;2023-04-19T09:04:04;28.55;;;16.45;;
37633;SDS011;32048;49.902;22.508;2023-04-19T09:06:53;24.48;;;14.77;;
37633;SDS011;32048;49.902;22.508;2023-04-19T09:09:21;18.58;;;12.32;;
37633;SDS011;32048;49.902;22.508;2023-04-19T09:11:51;27.92;;;11.57;;
37633;SDS011;32048;49.902;22.508;2023-04-19T09:14:20;18.55;;;11.50;;
37633;SDS011;32048;49.902;22.508;2023-04-19T09:16:49;21.52;;;11.82;;
37633;SDS011;32048;49.902;22.508;2023-04-19T09:19:17;20.40;;;12.15;;
37633;SDS011;32048;49.902;22.508;2023-04-19T09:21:51;16.42;;;11.75;;
37633;SDS011;32048;49.902;22.508;2023-04-19T09:24:35;21.27;;;11.93;;
37633;SDS011;32048;49.902;22.508;2023-04-19T09:27:28;20.98;;;14.52;;
37633;SDS011;32048;49.902;22.508;2023-04-19T09:29:57;22.15;;;12.57;;
37633;SDS011;32048;49.902;22.508;2023-04-19T09:32:25;22.85;;;11.25;;
37633;SDS011;32048;49.902;22.508;2023-04-19T09:34:57;17.63;;;11.20;;
37633;SDS011;32048;49.902;22.508;2023-04-19T09:37:25;22.10;;;14.15;;
37633;SDS011;32048;49.902;22.508;2023-04-19T09:39:55;15.88;;;11.70;;
37633;SDS011;32048;49.902;22.508;2023-04-19T09:42:22;17.20;;;12.25;;
37633;SDS011;32048;49.902;22.508;2023-04-19T09:45:09;15.95;;;11.13;;
37633;SDS011;32048;49.902;22.508;2023-04-19T09:47:39;16.60;;;11.82;;
37633;SDS011;32048;49.902;22.508;2023-04-19T09:50:07;15.73;;;10.80;;
37633;SDS011;32048;49.902;22.508;2023-04-19T09:52:48;14.90;;;10.50;;
37633;SDS011;32048;49.902;22.508;2023-04-19T09:55:16;13.13;;;9.93;;
37633;SDS011;32048;49.902;22.508;2023-04-19T09:57:48;14.50;;;10.43;;
37633;SDS011;32048;49.902;22.508;2023-04-19T10:00:15;24.48;;;11.27;;
37633;SDS011;32048;49.902;22.508;2023-04-19T10:02:42;14.90;;;10.23;;
37633;SDS011;32048;49.902;22.508;2023-04-19T10:05:16;14.65;;;9.15;;
37633;SDS011;32048;49.902;22.508;2023-04-19T10:07:47;13.73;;;9.20;;
37633;SDS011;32048;49.902;22.508;2023-04-19T10:10:16;12.97;;;9.50;;
37633;SDS011;32048;49.902;22.508;2023-04-19T10:12:47;12.70;;;9.35;;
37633;SDS011;32048;49.902;22.508;2023-04-19T10:15:20;13.52;;;8.25;;
37633;SDS011;32048;49.902;22.508;2023-04-19T10:17:48;12.30;;;9.45;;
37633;SDS011;32048;49.902;22.508;2023-04-19T10:20:18;11.77;;;9.02;;
37633;SDS011;32048;49.902;22.508;2023-04-19T10:22:49;13.73;;;8.68;;
37633;SDS011;32048;49.902;22.508;2023-04-19T10:25:17;14.77;;;8.88;;
37633;SDS011;32048;49.902;22.508;2023-04-19T10:27:44;13.85;;;9.13;;
37633;SDS011;32048;49.902;22.508;2023-04-19T10:30:15;9.77;;;8.20;;
37633;SDS011;32048;49.902;22.508;2023-04-19T10:32:45;15.27;;;9.27;;
37633;SDS011;32048;49.902;22.508;2023-04-19T10:35:18;10.55;;;8.52;;
37633;SDS011;32048;49.902;22.508;2023-04-19T10:38:03;13.88;;;7.78;;
37633;SDS011;32048;49.902;22.508;2023-04-19T10:43:17;15.23;;;8.18;;
37633;SDS011;32048;49.902;22.508;2023-04-19T10:45:45;13.48;;;8.23;;
37633;SDS011;32048;49.902;22.508;2023-04-19T10:50:56;11.75;;;9.07;;
37633;SDS011;32048;49.902;22.508;2023-04-19T10:53:49;13.82;;;8.45;;
37633;SDS011;32048;49.902;22.508;2023-04-19T11:01:44;16.33;;;7.93;;
37633;SDS011;32048;49.902;22.508;2023-04-19T11:07:00;16.33;;;8.13;;
37633;SDS011;32048;49.902;22.508;2023-04-19T11:09:36;10.63;;;7.82;;
37633;SDS011;32048;49.902;22.508;2023-04-19T11:12:06;12.02;;;7.60;;
37633;SDS011;32048;49.902;22.508;2023-04-19T11:17:15;7.72;;;6.63;;
37633;SDS011;32048;49.902;22.508;2023-04-19T11:19:46;16.40;;;7.25;;
37633;SDS011;32048;49.902;22.508;2023-04-19T11:22:31;9.20;;;6.82;;
37633;SDS011;32048;49.902;22.508;2023-04-19T11:25:04;10.80;;;7.10;;
37633;SDS011;32048;49.902;22.508;2023-04-19T11:27:48;13.63;;;8.02;;
37633;SDS011;32048;49.902;22.508;2023-04-19T11:32:52;10.85;;;7.38;;
37633;SDS011;32048;49.902;22.508;2023-04-19T11:35:23;8.38;;;6.55;;
37633;SDS011;32048;49.902;22.508;2023-04-19T11:37:54;9.32;;;6.55;;
37633;SDS011;32048;49.902;22.508;2023-04-19T11:40:23;9.95;;;7.10;;
37633;SDS011;32048;49.902;22.508;2023-04-19T11:42:55;13.18;;;7.00;;
37633;SDS011;32048;49.902;22.508;2023-04-19T11:45:27;9.38;;;6.53;;
37633;SDS011;32048;49.902;22.508;2023-04-19T11:47:58;17.17;;;8.00;;
37633;SDS011;32048;49.902;22.508;2023-04-19T11:55:36;9.32;;;7.28;;
37633;SDS011;32048;49.902;22.508;2023-04-19T11:58:06;20.48;;;9.18;;
37633;SDS011;32048;49.902;22.508;2023-04-19T12:00:36;14.23;;;8.50;;
37633;SDS011;32048;49.902;22.508;2023-04-19T12:03:03;13.40;;;8.00;;
37633;SDS011;32048;49.902;22.508;2023-04-19T12:05:31;12.45;;;8.82;;
37633;SDS011;32048;49.902;22.508;2023-04-19T12:10:30;22.52;;;9.82;;
37633;SDS011;32048;49.902;22.508;2023-04-19T12:12:57;18.35;;;8.60;;
37633;SDS011;32048;49.902;22.508;2023-04-19T12:15:43;21.85;;;8.98;;
37633;SDS011;32048;49.902;22.508;2023-04-19T12:18:11;19.35;;;9.80;;
37633;SDS011;32048;49.902;22.508;2023-04-19T12:20:44;14.07;;;8.93;;
37633;SDS011;32048;49.902;22.508;2023-04-19T12:23:14;20.80;;;9.38;;
37633;SDS011;32048;49.902;22.508;2023-04-19T12:25:43;13.88;;;9.75;;
37633;SDS011;32048;49.902;22.508;2023-04-19T12:28:14;13.85;;;9.52;;
37633;SDS011;32048;49.902;22.508;2023-04-19T12:30:42;13.00;;;9.02;;
37633;SDS011;32048;49.902;22.508;2023-04-19T12:33:11;13.20;;;9.23;;
37633;SDS011;32048;49.902;22.508;2023-04-19T12:35:38;13.82;;;8.50;;
37633;SDS011;32048;49.902;22.508;2023-04-19T12:38:06;15.52;;;10.13;;
37633;SDS011;32048;49.902;22.508;2023-04-19T12:40:34;18.42;;;8.98;;
37633;SDS011;32048;49.902;22.508;2023-04-19T12:43:01;11.55;;;8.18;;
37633;SDS011;32048;49.902;22.508;2023-04-19T12:45:31;17.50;;;8.05;;
37633;SDS011;32048;49.902;22.508;2023-04-19T12:48:00;11.65;;;8.13;;
37633;SDS011;32048;49.902;22.508;2023-04-19T12:50:27;12.13;;;8.60;;
37633;SDS011;32048;49.902;22.508;2023-04-19T12:52:54;11.00;;;8.30;;
37633;SDS011;32048;49.902;22.508;2023-04-19T12:55:21;19.50;;;8.70;;
37633;SDS011;32048;49.902;22.508;2023-04-19T12:57:48;15.65;;;8.32;;
37633;SDS011;32048;49.902;22.508;2023-04-19T13:00:15;19.08;;;9.43;;
37633;SDS011;32048;49.902;22.508;2023-04-19T13:02:43;15.20;;;9.82;;
37633;SDS011;32048;49.902;22.508;2023-04-19T13:05:10;12.43;;;8.73;;
37633;SDS011;32048;49.902;22.508;2023-04-19T13:07:38;11.27;;;8.90;;
37633;SDS011;32048;49.902;22.508;2023-04-19T13:10:06;17.88;;;10.23;;
37633;SDS011;32048;49.902;22.508;2023-04-19T13:12:34;26.40;;;12.95;;
37633;SDS011;32048;49.902;22.508;2023-04-19T13:15:03;18.63;;;9.32;;
37633;SDS011;32048;49.902;22.508;2023-04-19T13:17:30;12.77;;;8.65;;
37633;SDS011;32048;49.902;22.508;2023-04-19T13:19:58;14.90;;;8.07;;
37633;SDS011;32048;49.902;22.508;2023-04-19T13:22:25;9.40;;;6.63;;
37633;SDS011;32048;49.902;22.508;2023-04-19T13:24:52;62.15;;;45.17;;
37633;SDS011;32048;49.902;22.508;2023-04-19T13:27:19;222.82;;;136.23;;
37633;SDS011;32048;49.902;22.508;2023-04-19T13:29:46;130.38;;;75.10;;
37633;SDS011;32048;49.902;22.508;2023-04-19T13:32:13;16.45;;;9.13;;
37633;SDS011;32048;49.902;22.508;2023-04-19T13:34:40;8.82;;;6.20;;
37633;SDS011;32048;49.902;22.508;2023-04-19T13:37:07;11.70;;;6.18;;
37633;SDS011;32048;49.902;22.508;2023-04-19T13:39:35;15.70;;;8.95;;
37633;SDS011;32048;49.902;22.508;2023-04-19T13:42:02;17.08;;;9.70;;
37633;SDS011;32048;49.902;22.508;2023-04-19T13:44:29;30.67;;;18.05;;
37633;SDS011;32048;49.902;22.508;2023-04-19T13:46:56;18.83;;;11.68;;
37633;SDS011;32048;49.902;22.508;2023-04-19T13:49:24;13.55;;;6.82;;
37633;SDS011;32048;49.902;22.508;2023-04-19T13:51:51;12.05;;;7.07;;
37633;SDS011;32048;49.902;22.508;2023-04-19T13:54:19;11.88;;;6.13;;
37633;SDS011;32048;49.902;22.508;2023-04-19T13:56:46;13.05;;;5.80;;
37633;SDS011;32048;49.902;22.508;2023-04-19T13:59:17;13.32;;;7.38;;
37633;SDS011;32048;49.902;22.508;2023-04-19T14:01:44;16.13;;;8.43;;
37633;SDS011;32048;49.902;22.508;2023-04-19T14:04:12;12.95;;;8.18;;
37633;SDS011;32048;49.902;22.508;2023-04-19T14:06:39;14.02;;;8.15;;
37633;SDS011;32048;49.902;22.508;2023-04-19T14:09:06;18.48;;;8.38;;
37633;SDS011;32048;49.902;22.508;2023-04-19T14:11:33;13.60;;;8.30;;
37633;SDS011;32048;49.902;22.508;2023-04-19T14:14:01;14.13;;;8.13;;
37633;SDS011;32048;49.902;22.508;2023-04-19T14:16:27;14.05;;;8.50;;
37633;SDS011;32048;49.902;22.508;2023-04-19T14:18:55;21.25;;;10.00;;
37633;SDS011;32048;49.902;22.508;2023-04-19T14:21:22;16.90;;;9.23;;
37633;SDS011;32048;49.902;22.508;2023-04-19T14:23:49;15.13;;;9.00;;
37633;SDS011;32048;49.902;22.508;2023-04-19T14:26:16;16.77;;;10.35;;
37633;SDS011;32048;49.902;22.508;2023-04-19T14:28:43;17.38;;;10.10;;
37633;SDS011;32048;49.902;22.508;2023-04-19T14:31:10;18.75;;;9.98;;
37633;SDS011;32048;49.902;22.508;2023-04-19T14:33:37;20.00;;;9.20;;
37633;SDS011;32048;49.902;22.508;2023-04-19T14:36:04;16.33;;;8.25;;
37633;SDS011;32048;49.902;22.508;2023-04-19T14:38:31;16.02;;;9.13;;
37633;SDS011;32048;49.902;22.508;2023-04-19T14:40:59;16.48;;;9.98;;
37633;SDS011;32048;49.902;22.508;2023-04-19T14:43:26;12.40;;;7.90;;
37633;SDS011;32048;49.902;22.508;2023-04-19T14:45:53;18.35;;;9.73;;
37633;SDS011;32048;49.902;22.508;2023-04-19T14:48:21;15.38;;;7.40;;
37633;SDS011;32048;49.902;22.508;2023-04-19T14:50:48;12.02;;;7.05;;